createdAt,value
2023-02-12T00:02:10.546Z,83.00
2023-02-12T00:04:33.916Z,75.35
2023-02-12T00:06:57.472Z,78.38
2023-02-12T00:09:20.746Z,84.97
2023-02-12T00:11:43.994Z,76.28
2023-02-12T00:14:07.295Z,86.45
2023-02-12T00:16:31.204Z,76.30
2023-02-12T00:18:58.132Z,77.55
2023-02-12T00:21:21.994Z,79.10
2023-02-12T00:23:45.530Z,78.65
2023-02-12T00:26:09.574Z,82.63
2023-02-12T00:28:33.977Z,81.22
2023-02-12T00:30:57.528Z,73.22
2023-02-12T00:33:23.485Z,72.97
2023-02-12T00:35:57.283Z,79.10
2023-02-12T00:38:20.667Z,74.22
2023-02-12T00:40:43.987Z,80.60
2023-02-12T00:43:07.228Z,78.65
2023-02-12T00:45:30.471Z,78.90
2023-02-12T00:47:54.700Z,82.35
2023-02-12T00:50:18.393Z,73.78
2023-02-12T00:52:43.034Z,81.15
2023-02-12T00:55:07.797Z,78.65
2023-02-12T00:57:31.134Z,79.88
2023-02-12T00:59:54.632Z,81.07
2023-02-12T01:02:18.293Z,77.85
2023-02-12T01:04:43.294Z,81.78
2023-02-12T01:07:06.666Z,81.20
2023-02-12T01:09:32.059Z,73.53
2023-02-12T01:11:56.648Z,70.95
2023-02-12T01:14:19.944Z,75.28
2023-02-12T01:16:43.310Z,77.00
2023-02-12T01:19:07.056Z,79.85
2023-02-12T01:21:34.145Z,78.68
2023-02-12T01:23:57.740Z,66.68
2023-02-12T01:26:24.056Z,73.05
2023-02-12T01:28:51.774Z,70.43
2023-02-12T01:31:18.916Z,75.53
2023-02-12T01:33:43.030Z,74.18
2023-02-12T01:36:09.223Z,75.32
2023-02-12T01:38:32.578Z,74.63
2023-02-12T01:41:04.374Z,74.57
2023-02-12T01:43:29.655Z,73.70
2023-02-12T01:45:54.790Z,72.82
2023-02-12T01:48:22.039Z,79.97
2023-02-12T01:50:47.530Z,76.53
2023-02-12T01:53:13.043Z,72.75
2023-02-12T01:55:36.556Z,75.85
2023-02-12T01:58:00.019Z,76.82
2023-02-12T02:00:26.318Z,70.82
2023-02-12T02:02:53.512Z,78.60
2023-02-12T02:05:26.931Z,76.38
2023-02-12T02:07:50.623Z,73.00
2023-02-12T02:10:14.429Z,69.18
2023-02-12T02:12:56.801Z,70.15
2023-02-12T02:15:20.428Z,76.30
2023-02-12T02:17:52.982Z,76.45
2023-02-12T02:21:15.913Z,69.70
2023-02-12T02:24:00.745Z,74.57
2023-02-12T02:26:49.853Z,78.55
2023-02-12T02:29:36.477Z,69.10
2023-02-12T02:32:07.835Z,72.88
2023-02-12T02:34:40.428Z,66.60
2023-02-12T02:37:15.216Z,70.57
2023-02-12T02:39:44.434Z,65.70
2023-02-12T02:42:16.673Z,71.30
2023-02-12T02:44:49.891Z,69.40
2023-02-12T02:47:16.374Z,67.82
2023-02-12T02:49:45.356Z,62.13
2023-02-12T02:52:13.729Z,69.53
2023-02-12T02:54:43.216Z,73.35
2023-02-12T02:57:11.330Z,70.13
2023-02-12T02:59:39.560Z,68.88
2023-02-12T03:02:09.483Z,60.20
2023-02-12T03:04:38.071Z,62.42
2023-02-12T03:07:08.307Z,64.80
2023-02-12T03:09:37.441Z,69.68
2023-02-12T03:12:05.283Z,65.50
2023-02-12T03:14:33.054Z,60.72
2023-02-12T03:17:01.441Z,61.03
2023-02-12T03:19:28.372Z,61.15
2023-02-12T03:21:59.663Z,59.78
2023-02-12T03:24:29.309Z,61.55
2023-02-12T03:26:59.075Z,54.90
2023-02-12T03:29:22.465Z,55.13
2023-02-12T03:32:06.930Z,57.65
2023-02-12T03:34:46.426Z,59.17
2023-02-12T03:37:17.383Z,54.88
2023-02-12T03:39:52.121Z,57.75
2023-02-12T03:42:20.468Z,53.92
2023-02-12T03:44:52.135Z,60.03
2023-02-12T03:47:24.401Z,59.97
2023-02-12T03:49:57.412Z,66.13
2023-02-12T03:52:22.794Z,53.13
2023-02-12T03:54:46.085Z,63.38
2023-02-12T03:57:15.322Z,54.53
2023-02-12T03:59:42.453Z,66.70
2023-02-12T04:02:06.339Z,65.53
2023-02-12T04:04:30.630Z,59.67
2023-02-12T04:06:54.901Z,61.33
2023-02-12T04:09:20.415Z,67.18
2023-02-12T04:11:57.042Z,65.07
2023-02-12T04:14:30.077Z,63.42
2023-02-12T04:17:01.416Z,56.22
2023-02-12T04:19:33.605Z,60.05
2023-02-12T04:22:13.394Z,59.83
2023-02-12T04:24:50.368Z,55.28
2023-02-12T04:27:23.415Z,65.85
2023-02-12T04:29:52.216Z,65.32
2023-02-12T04:32:20.587Z,57.88
2023-02-12T04:34:52.304Z,59.30
2023-02-12T04:37:21.836Z,56.97
2023-02-12T04:39:47.385Z,54.47
2023-02-12T04:42:10.857Z,58.40
2023-02-12T04:44:39.759Z,65.35
2023-02-12T04:47:03.255Z,69.28
2023-02-12T04:49:27.311Z,61.05
2023-02-12T04:51:51.788Z,57.25
2023-02-12T04:54:16.348Z,57.80
2023-02-12T04:56:40.967Z,64.90
2023-02-12T04:59:04.754Z,64.15
2023-02-12T05:01:34.761Z,60.05
2023-02-12T05:03:58.036Z,61.22
2023-02-12T05:06:21.378Z,58.85
2023-02-12T05:08:44.639Z,61.78
2023-02-12T05:11:09.306Z,63.38
2023-02-12T05:13:34.161Z,59.20
2023-02-12T05:15:57.814Z,61.97
2023-02-12T05:18:21.596Z,63.13
2023-02-12T05:20:44.879Z,63.38
2023-02-12T05:23:08.186Z,62.50
2023-02-12T05:25:31.964Z,63.92
2023-02-12T05:27:56.689Z,64.10
2023-02-12T05:30:21.780Z,58.28
2023-02-12T05:32:45.138Z,64.75
2023-02-12T05:35:09.193Z,62.92
2023-02-12T05:37:32.582Z,57.72
2023-02-12T05:39:55.896Z,62.65
2023-02-12T05:42:19.199Z,59.55
2023-02-12T05:44:42.500Z,73.25
2023-02-12T05:47:07.140Z,71.38
2023-02-12T05:49:31.005Z,70.40
2023-02-12T05:51:54.290Z,69.07
2023-02-12T05:54:17.629Z,68.97
2023-02-12T05:56:46.074Z,70.05
2023-02-12T05:59:15.628Z,65.90
2023-02-12T06:01:41.517Z,68.93
2023-02-12T06:04:09.111Z,68.43
2023-02-12T06:06:33.392Z,67.05
2023-02-12T06:08:56.820Z,83.03
2023-02-12T06:11:20.879Z,62.95
2023-02-12T06:13:44.537Z,69.38
2023-02-12T06:16:08.592Z,70.45
2023-02-12T06:18:33.003Z,70.55
2023-02-12T06:20:57.834Z,75.50
2023-02-12T06:23:21.597Z,76.32
2023-02-12T06:25:44.948Z,67.50
2023-02-12T06:28:08.277Z,64.90
2023-02-12T06:30:32.030Z,69.20
2023-02-12T06:32:55.282Z,74.47
2023-02-12T06:35:18.708Z,68.45
2023-02-12T06:37:43.339Z,75.30
2023-02-12T06:40:08.740Z,70.40
2023-02-12T06:42:33.218Z,74.38
2023-02-12T06:44:56.558Z,73.95
2023-02-12T06:47:20.047Z,85.22
2023-02-12T06:49:43.374Z,73.05
2023-02-12T06:52:07.103Z,67.13
2023-02-12T06:54:31.831Z,65.00
2023-02-12T06:56:55.411Z,69.32
2023-02-12T06:59:19.210Z,66.28
2023-02-12T07:01:43.036Z,69.63
2023-02-12T07:04:06.850Z,69.47
2023-02-12T07:06:32.144Z,69.78
2023-02-12T07:08:55.831Z,69.57
2023-02-12T07:11:24.780Z,72.60
2023-02-12T07:13:48.059Z,76.25
2023-02-12T07:16:15.102Z,69.60
2023-02-12T07:18:39.636Z,65.15
2023-02-12T07:21:03.428Z,67.00
2023-02-12T07:23:26.742Z,69.78
2023-02-12T07:25:57.440Z,71.72
2023-02-12T07:28:22.444Z,76.80
2023-02-12T07:30:45.710Z,72.07
2023-02-12T07:33:09.130Z,74.38
2023-02-12T07:35:32.438Z,66.85
2023-02-12T07:37:55.678Z,68.10
2023-02-12T07:40:19.397Z,73.63
2023-02-12T07:42:42.660Z,71.82
2023-02-12T07:45:08.421Z,78.72
2023-02-12T07:47:31.989Z,71.05
2023-02-12T07:49:56.397Z,73.93
2023-02-12T07:52:20.000Z,70.97
2023-02-12T07:54:43.256Z,69.45
2023-02-12T07:57:06.706Z,71.97
2023-02-12T07:59:30.098Z,73.60
2023-02-12T08:01:56.333Z,73.93
2023-02-12T08:04:25.206Z,74.07
2023-02-12T08:06:51.540Z,75.63
2023-02-12T08:09:19.154Z,75.70
2023-02-12T08:11:43.872Z,74.60
2023-02-12T08:14:07.611Z,74.60
2023-02-12T08:16:32.270Z,78.07
2023-02-12T08:19:07.136Z,72.97
2023-02-12T08:21:38.242Z,75.97
2023-02-12T08:24:02.050Z,74.35
2023-02-12T08:26:28.976Z,73.82
2023-02-12T08:28:55.535Z,83.57
2023-02-12T08:31:24.879Z,78.50
2023-02-12T08:33:50.156Z,77.03
2023-02-12T08:36:17.674Z,72.95
2023-02-12T08:38:41.807Z,88.55
2023-02-12T08:41:06.993Z,79.03
2023-02-12T08:43:30.351Z,77.53
2023-02-12T08:45:55.305Z,79.05
2023-02-12T08:48:20.553Z,77.63
2023-02-12T08:50:43.768Z,77.85
2023-02-12T08:53:08.456Z,80.32
2023-02-12T08:55:32.382Z,73.88
2023-02-12T08:57:57.919Z,76.85
2023-02-12T09:00:22.364Z,83.88
2023-02-12T09:02:45.601Z,79.38
2023-02-12T09:05:09.229Z,70.30
2023-02-12T09:07:32.373Z,76.15
2023-02-12T09:09:57.320Z,80.43
2023-02-12T09:12:20.518Z,71.65
2023-02-12T09:14:43.966Z,75.88
2023-02-12T09:17:07.343Z,65.55
2023-02-12T09:19:30.720Z,73.72
2023-02-12T09:21:56.299Z,71.22
2023-02-12T09:24:22.705Z,74.18
2023-02-12T09:26:47.303Z,74.43
2023-02-12T09:29:10.568Z,67.35
2023-02-12T09:31:35.176Z,71.13
2023-02-12T09:34:01.980Z,69.95
2023-02-12T09:36:25.485Z,69.72
2023-02-12T09:38:49.202Z,67.05
2023-02-12T09:41:55.427Z,66.63
2023-02-12T09:44:24.384Z,63.13
2023-02-12T09:46:53.360Z,62.53
2023-02-12T09:49:27.761Z,61.95
2023-02-12T09:51:54.873Z,64.32
2023-02-12T09:54:21.214Z,60.72
2023-02-12T09:56:49.371Z,60.15
2023-02-12T09:59:23.869Z,65.55
2023-02-12T10:01:47.185Z,64.40
2023-02-12T10:04:11.019Z,60.65
2023-02-12T10:06:42.563Z,66.13
2023-02-12T10:09:33.686Z,63.42
2023-02-12T10:12:06.065Z,61.17
2023-02-12T10:15:08.096Z,62.13
2023-02-12T10:17:42.121Z,52.40
2023-02-12T10:20:33.125Z,51.20
2023-02-12T10:23:14.080Z,57.80
2023-02-12T10:25:47.345Z,48.67
2023-02-12T10:28:14.922Z,48.67
2023-02-12T10:30:48.383Z,49.28
2023-02-12T10:33:17.788Z,42.97
2023-02-12T10:35:48.803Z,38.22
2023-02-12T10:38:20.242Z,40.03
2023-02-12T10:40:46.496Z,36.88
2023-02-12T10:43:14.650Z,38.55
2023-02-12T10:45:43.420Z,37.92
2023-02-12T10:48:11.512Z,37.78
2023-02-12T10:50:52.529Z,40.50
2023-02-12T10:53:23.052Z,34.50
2023-02-12T10:55:46.402Z,31.77
2023-02-12T10:58:24.214Z,32.28
2023-02-12T11:00:57.441Z,39.05
2023-02-12T11:03:24.081Z,48.30
2023-02-12T11:05:47.568Z,48.70
2023-02-12T11:08:32.355Z,48.63
2023-02-12T11:10:55.737Z,50.17
2023-02-12T11:13:26.718Z,50.40
2023-02-12T11:15:51.688Z,48.10
2023-02-12T11:18:26.004Z,55.13
2023-02-12T11:20:52.210Z,48.08
2023-02-12T11:23:29.243Z,46.55
2023-02-12T11:25:59.406Z,46.47
2023-02-12T11:28:22.903Z,49.65
2023-02-12T11:30:57.477Z,48.15
2023-02-12T11:33:28.947Z,52.63
2023-02-12T11:35:56.295Z,48.50
2023-02-12T11:38:27.491Z,48.75
2023-02-12T11:40:50.934Z,50.00
2023-02-12T11:43:19.604Z,46.65
2023-02-12T11:45:47.789Z,49.85
2023-02-12T11:48:20.546Z,49.80
2023-02-12T11:50:49.306Z,47.72
2023-02-12T11:53:23.556Z,51.67
2023-02-12T11:55:56.943Z,49.58
2023-02-12T11:58:25.049Z,52.55
2023-02-12T12:00:55.985Z,52.13
2023-02-12T12:03:26.457Z,50.78
2023-02-12T12:05:53.347Z,49.63
2023-02-12T12:08:23.578Z,49.17
2023-02-12T12:10:51.460Z,47.05
2023-02-12T12:13:25.073Z,51.22
2023-02-12T12:16:21.955Z,49.63
2023-02-12T12:19:10.029Z,48.42
2023-02-12T12:21:41.564Z,49.80
2023-02-12T12:24:11.648Z,43.47
2023-02-12T12:26:36.079Z,48.83
2023-02-12T12:29:07.218Z,45.25
2023-02-12T12:31:35.279Z,44.42
2023-02-12T12:34:09.114Z,39.78
2023-02-12T12:37:04.405Z,44.10
2023-02-12T12:39:36.248Z,47.03
2023-02-12T12:42:55.803Z,49.10
2023-02-12T12:45:40.273Z,43.55
2023-02-12T12:48:19.378Z,45.92
2023-02-12T12:51:14.060Z,47.85
2023-02-12T12:54:00.147Z,46.45
2023-02-12T12:56:46.501Z,45.33
2023-02-12T12:59:31.125Z,45.55
2023-02-12T13:02:45.075Z,42.67
2023-02-12T13:05:51.760Z,41.83
2023-02-12T13:08:34.798Z,39.95
2023-02-12T13:11:04.609Z,42.38
2023-02-12T13:13:33.864Z,43.53
2023-02-12T13:16:05.742Z,46.00
2023-02-12T13:18:42.553Z,44.80
2023-02-12T13:21:15.530Z,45.63
2023-02-12T13:23:48.942Z,50.90
2023-02-12T13:26:19.033Z,41.78
2023-02-12T13:28:46.211Z,50.67
2023-02-12T13:31:33.458Z,45.10
2023-02-12T13:34:00.800Z,45.17
2023-02-12T13:36:24.363Z,42.03
2023-02-12T13:38:57.863Z,43.70
2023-02-12T13:41:21.922Z,49.08
2023-02-12T13:44:02.473Z,44.65
2023-02-12T13:46:33.286Z,46.83
2023-02-12T13:49:10.589Z,49.00
2023-02-12T13:51:44.510Z,43.00
2023-02-12T13:54:22.277Z,41.78
2023-02-12T13:56:48.500Z,42.58
2023-02-12T13:59:46.384Z,40.47
2023-02-12T14:02:43.999Z,38.97
2023-02-12T14:05:33.259Z,42.65
2023-02-12T14:08:03.481Z,45.45
2023-02-12T14:10:33.020Z,50.10
2023-02-12T14:13:10.410Z,43.47
2023-02-12T14:15:37.918Z,54.60
2023-02-12T14:18:30.528Z,50.40
2023-02-12T14:21:42.588Z,44.65
2023-02-12T14:24:50.030Z,49.10
2023-02-12T14:27:31.431Z,51.78
2023-02-12T14:30:34.543Z,52.75
2023-02-12T14:33:25.113Z,49.17
2023-02-12T14:35:51.074Z,51.40
2023-02-12T14:39:03.859Z,51.17
2023-02-12T14:41:38.568Z,55.85
2023-02-12T14:44:48.864Z,55.90
2023-02-12T14:47:55.516Z,57.38
2023-02-12T14:50:24.759Z,53.72
2023-02-12T14:52:55.859Z,51.67
2023-02-12T14:55:27.663Z,58.72
2023-02-12T14:57:52.046Z,51.60
2023-02-12T15:00:28.536Z,51.85
2023-02-12T15:02:58.356Z,54.28
2023-02-12T15:05:27.371Z,51.55
2023-02-12T15:07:58.355Z,52.38
2023-02-12T15:10:24.838Z,51.50
2023-02-12T15:12:54.541Z,45.55
2023-02-12T15:15:30.816Z,49.70
2023-02-12T15:18:00.007Z,54.05
2023-02-12T15:20:27.042Z,50.22
2023-02-12T15:22:50.411Z,46.17
2023-02-12T15:25:21.298Z,43.50
2023-02-12T15:27:45.446Z,47.42
2023-02-12T15:30:25.941Z,45.85
2023-02-12T15:32:51.823Z,45.58
2023-02-12T15:35:26.564Z,46.05
2023-02-12T15:37:50.939Z,43.60
2023-02-12T15:40:17.397Z,44.75
2023-02-12T15:42:42.784Z,46.90
2023-02-12T15:45:22.988Z,48.60
2023-02-12T15:47:58.184Z,49.55
2023-02-12T15:50:22.599Z,46.35
2023-02-12T15:52:48.709Z,52.80
2023-02-12T15:55:18.597Z,43.05
2023-02-12T15:57:42.590Z,39.47
2023-02-12T16:00:10.335Z,47.15
2023-02-12T16:02:36.904Z,44.53
2023-02-12T16:05:05.806Z,45.15
2023-02-12T16:07:37.918Z,44.05
2023-02-12T16:10:02.224Z,42.83
2023-02-12T16:12:30.674Z,45.25
2023-02-12T16:14:56.368Z,45.10
2023-02-12T16:17:24.111Z,45.38
2023-02-12T16:19:56.000Z,43.40
2023-02-12T16:22:24.557Z,42.03
2023-02-12T16:24:50.788Z,42.33
2023-02-12T16:27:21.317Z,44.63
2023-02-12T16:29:49.800Z,42.05
2023-02-12T16:32:34.898Z,40.47
2023-02-12T16:35:25.109Z,46.42
2023-02-12T16:37:52.202Z,43.70
2023-02-12T16:40:28.093Z,47.33
2023-02-12T16:43:01.814Z,42.47
2023-02-12T16:45:45.005Z,42.92
2023-02-12T16:48:25.285Z,43.35
2023-02-12T16:50:53.324Z,44.67
2023-02-12T16:53:50.107Z,43.90
2023-02-12T16:56:18.193Z,46.88
2023-02-12T16:58:41.449Z,46.10
2023-02-12T17:01:07.061Z,44.40
2023-02-12T17:03:30.649Z,49.35
2023-02-12T17:05:54.574Z,43.95
2023-02-12T17:08:22.114Z,45.95
2023-02-12T17:10:48.187Z,51.85
2023-02-12T17:13:11.871Z,50.50
2023-02-12T17:15:42.625Z,46.13
2023-02-12T17:18:06.264Z,51.97
2023-02-12T17:20:29.585Z,46.08
2023-02-12T17:22:57.280Z,44.88
2023-02-12T17:25:21.179Z,61.83
2023-02-12T17:27:46.496Z,50.22
2023-02-12T17:30:15.411Z,49.38
2023-02-12T17:32:39.389Z,59.08
2023-02-12T17:35:02.664Z,51.83
2023-02-12T17:37:26.135Z,43.85
2023-02-12T17:39:49.517Z,45.92
2023-02-12T17:42:12.943Z,50.88
2023-02-12T17:44:37.626Z,49.67
2023-02-12T17:47:01.104Z,47.97
2023-02-12T17:49:24.584Z,48.85
2023-02-12T17:51:47.893Z,47.45
2023-02-12T17:54:12.168Z,45.28
2023-02-12T17:56:35.932Z,47.45
2023-02-12T17:58:59.346Z,45.40
2023-02-12T18:01:25.712Z,58.08
2023-02-12T18:03:51.490Z,55.95
2023-02-12T18:06:16.674Z,56.42
2023-02-12T18:08:39.945Z,55.72
2023-02-12T18:11:07.111Z,57.63
2023-02-12T18:13:30.411Z,70.32
2023-02-12T18:15:54.042Z,60.65
2023-02-12T18:18:18.885Z,61.03
2023-02-12T18:20:42.799Z,56.72
2023-02-12T18:23:06.543Z,56.85
2023-02-12T18:25:30.082Z,76.30
2023-02-12T18:27:53.491Z,76.07
2023-02-12T18:30:17.507Z,57.45
2023-02-12T18:32:40.886Z,53.75
2023-02-12T18:35:08.422Z,51.88
2023-02-12T18:37:31.803Z,53.33
2023-02-12T18:39:55.189Z,56.63
2023-02-12T18:42:18.474Z,49.58
2023-02-12T18:44:42.778Z,48.75
2023-02-12T18:47:06.305Z,50.22
2023-02-12T18:49:29.958Z,50.50
2023-02-12T18:51:55.091Z,51.30
2023-02-12T18:54:18.310Z,52.72
2023-02-12T18:56:44.688Z,47.90
2023-02-12T18:59:09.013Z,49.10
2023-02-12T19:01:34.609Z,49.95
2023-02-12T19:04:00.714Z,50.70
2023-02-12T19:06:24.949Z,51.28
2023-02-12T19:08:49.654Z,49.05
2023-02-12T19:11:15.718Z,51.88
2023-02-12T19:13:39.685Z,51.38
2023-02-12T19:16:08.328Z,49.95
2023-02-12T19:18:31.703Z,52.08
2023-02-12T19:20:55.448Z,53.25
2023-02-12T19:23:19.020Z,53.17
2023-02-12T19:25:45.149Z,54.08
2023-02-12T19:28:08.643Z,52.00
2023-02-12T19:30:31.974Z,51.70
2023-02-12T19:32:55.658Z,47.15
2023-02-12T19:35:19.777Z,58.13
2023-02-12T19:37:43.086Z,61.25
2023-02-12T19:40:08.258Z,54.67
2023-02-12T19:42:33.801Z,55.63
2023-02-12T19:44:57.333Z,47.65
2023-02-12T19:47:20.608Z,49.78
2023-02-12T19:49:44.204Z,44.50
2023-02-12T19:52:07.747Z,48.42
2023-02-12T19:54:31.220Z,46.35
2023-02-12T19:56:56.133Z,44.95
2023-02-12T19:59:23.957Z,50.42
2023-02-12T20:01:49.102Z,49.22
2023-02-12T20:04:14.328Z,47.78
2023-02-12T20:06:39.054Z,46.03
2023-02-12T20:09:03.824Z,42.50
2023-02-12T20:11:29.868Z,47.45
2023-02-12T20:13:53.409Z,42.92
2023-02-12T20:16:20.985Z,42.97
2023-02-12T20:18:45.666Z,45.47
2023-02-12T20:21:15.504Z,44.72
2023-02-12T20:23:39.069Z,45.53
2023-02-12T20:26:06.460Z,40.22
2023-02-12T20:28:30.105Z,50.75
2023-02-12T20:30:53.640Z,42.70
2023-02-12T20:33:18.567Z,44.20
2023-02-12T20:35:41.947Z,43.05
2023-02-12T20:38:06.015Z,41.72
2023-02-12T20:40:29.336Z,41.55
2023-02-12T20:42:52.630Z,39.90
2023-02-12T20:45:16.193Z,39.88
2023-02-12T20:47:39.902Z,37.95
2023-02-12T20:50:05.101Z,42.10
2023-02-12T20:52:28.753Z,39.35
2023-02-12T20:54:52.705Z,42.83
2023-02-12T20:57:16.308Z,33.75
2023-02-12T20:59:39.825Z,33.78
2023-02-12T21:02:03.083Z,39.17
2023-02-12T21:04:27.125Z,35.78
2023-02-12T21:06:52.277Z,36.75
2023-02-12T21:09:16.124Z,38.45
2023-02-12T21:11:42.136Z,35.92
2023-02-12T21:14:21.395Z,36.33
2023-02-12T21:16:46.106Z,34.60
2023-02-12T21:19:09.803Z,34.58
2023-02-12T21:21:36.067Z,35.63
2023-02-12T21:24:03.299Z,34.83
2023-02-12T21:26:29.638Z,34.00
2023-02-12T21:28:54.030Z,31.52
2023-02-12T21:31:21.866Z,36.95
2023-02-12T21:33:48.652Z,34.83
2023-02-12T21:36:14.905Z,32.63
2023-02-12T21:38:40.177Z,34.55
2023-02-12T21:41:13.747Z,32.30
2023-02-12T21:43:37.677Z,29.38
2023-02-12T21:46:01.040Z,30.55
2023-02-12T21:48:24.391Z,30.75
2023-02-12T21:50:47.692Z,32.80
2023-02-12T21:53:10.999Z,30.90
2023-02-12T21:55:38.037Z,31.73
2023-02-12T21:58:03.027Z,29.83
2023-02-12T22:00:26.570Z,31.90
2023-02-12T22:02:50.032Z,28.60
2023-02-12T22:05:13.529Z,29.40
2023-02-12T22:07:36.779Z,27.77
2023-02-12T22:10:00.890Z,28.73
2023-02-12T22:12:24.440Z,31.05
2023-02-12T22:14:49.311Z,26.88
2023-02-12T22:17:12.518Z,27.23
2023-02-12T22:19:36.245Z,28.25
2023-02-12T22:21:59.649Z,25.70
2023-02-12T22:24:23.272Z,25.95
2023-02-12T22:26:46.575Z,25.75
2023-02-12T22:29:12.787Z,26.85
2023-02-12T22:31:40.742Z,27.08
2023-02-12T22:34:08.139Z,25.42
2023-02-12T22:36:32.876Z,24.27
2023-02-12T22:38:59.227Z,27.08
2023-02-12T22:41:23.132Z,24.95
2023-02-12T22:43:46.613Z,21.67
2023-02-12T22:46:11.961Z,21.38
2023-02-12T22:48:36.948Z,20.45
2023-02-12T22:51:00.697Z,21.25
2023-02-12T22:53:25.169Z,20.65
2023-02-12T22:55:48.546Z,18.75
2023-02-12T22:58:12.004Z,19.00
2023-02-12T23:00:35.580Z,19.85
2023-02-12T23:02:58.841Z,18.02
2023-02-12T23:05:23.882Z,16.02
2023-02-12T23:07:47.108Z,16.38
2023-02-12T23:10:10.998Z,17.75
2023-02-12T23:12:34.284Z,17.15
2023-02-12T23:14:57.518Z,17.45
2023-02-12T23:17:20.845Z,15.93
2023-02-12T23:19:44.100Z,16.10
2023-02-12T23:22:08.738Z,14.07
2023-02-12T23:24:32.120Z,16.10
2023-02-12T23:26:55.557Z,16.25
2023-02-12T23:29:19.081Z,16.70
2023-02-12T23:31:42.501Z,14.95
2023-02-12T23:34:05.887Z,16.50
2023-02-12T23:36:29.347Z,18.33
2023-02-12T23:38:54.389Z,15.77
2023-02-12T23:41:17.823Z,14.77
2023-02-12T23:43:41.062Z,13.68
2023-02-12T23:46:04.874Z,15.63
2023-02-12T23:48:28.345Z,14.00
2023-02-12T23:50:51.656Z,17.30
2023-02-12T23:53:14.939Z,12.57
2023-02-12T23:55:41.178Z,14.02
2023-02-12T23:58:04.694Z,14.82
